Weather observations for the past three days for
Battle Creek Executive Airport
Metric (Imperial)
Date Time (edt) Wind (kph) Vis. (km) Weather Sky Cond. Temperature (ºC) Relative Humidity Wind Chill (°C) Heat Index (°C) Pressure Precipitation (cm)
Air Dwpt 6 hour altimeter (cm) sea level (mb) 1 hr 3 hr 6 hr
Max. Min.
06 13:53 NW 15 G 35 16.09 Partly Cloudy SCT065 11.7 -3.9 12.2 5.6 34% 75.97 1013.1
06 12:53 NW 15 G 35 16.09 Fair CLR 11.1 -3.9 35% 76.02 1013.8
06 11:53 N 20 G 43 16.09 Fair CLR 10.6 -4.4 35% 76.02 1013.8
06 10:53 Vrbl 9 16.09 Fair CLR 10 -4.4 36% 9 76 1013.5
06 09:53 NW 11 16.09 Fair CLR 8.9 -2.8 44% 7 75.95 1013.0
06 08:53 N 13 16.09 Fair CLR 7.8 -1.1 54% 6 75.95 1012.8
06 07:53 NW 11 16.09 Fair CLR 5.6 -1.7 7.8 2.8 60% 3 75.87 1012.0
06 06:53 NW 9 16.09 Fair CLR 3.9 -1.7 67% 2 75.82 1011.2
06 05:53 NW 9 16.09 Fair CLR 3.3 -1.7 70% 1 75.79 1010.9
06 04:53 NW 7 16.09 Fair CLR 5 -1.7 62% 4 75.74 1010.2
06 03:53 NW 9 16.09 Fair CLR 6.1 -1.1 60% 4 75.74 1010.0
06 02:53 NW 15 16.09 Fair CLR 7.2 -1.1 56% 5 75.74 1010.2
06 01:53 NW 11 16.09 Partly Cloudy SCT120 7.8 -0.6 9.4 7.2 56% 6 75.77 1010.3
06 00:53 W 9 16.09 Mostly Cloudy BKN110 7.2 0.6 63% 6 75.74 1010.2
05 23:53 W 9 16.09 Overcast OVC100 7.8 0 58% 6 75.74 1010.2
05 22:53 W 6 16.09 A Few Clouds FEW110 7.8 -0.6 56% 75.72 1009.8
05 21:53 W 6 16.09 Overcast OVC110 8.3 -1.1 52% 75.69 1009.5
05 20:53 NW 7 16.09 Mostly Cloudy BKN110 8.3 -2.2 48% 7 75.67 1008.9
05 19:53 W 13 16.09 Mostly Cloudy BKN110 9.4 -2.8 12.2 9.4 43% 8 75.67 1008.9
05 18:53 W 15 16.09 Mostly Cloudy BKN110 10 -2.8 41% 8 75.67 1008.8
05 17:53 NW 17 G 33 16.09 Fair CLR 10.6 -2.8 39% 75.67 1008.9
05 16:53 W 19 16.09 Fair CLR 11.1 -2.8 38% 75.64 1008.7
05 15:53 W 22 16.09 Overcast OVC080 11.1 -2.2 40% 75.64 1008.5
05 14:53 W 22 16.09 Overcast OVC080 11.1 -1.7 41% 75.64 1008.5
05 13:53 W 20 G 33 16.09 Mostly Cloudy BKN085 12.2 -0.6 12.2 7.8 42% 75.62 1008.2 0.1
05 12:53 W 22 G 31 16.09 Fair CLR 10.6 2.8 59% 75.59 1007.6
05 11:53 W 15 16.09 Fair CLR 8.9 5 77% 7 75.62 1008.1
05 10:53 W 11 12.87 Light Rain SCT060 BKN075 OVC085 7.8 5.6 86% 6 75.62 1008.2 0.08 0.1
05 09:53 NW 19 8.05 Light Rain OVC080 8.3 5 80% 6 75.57 1007.5 0.03
05 08:53 NW 13 16.09 Overcast OVC090 10 3.9 66% 8 75.46 1005.9
05 07:53 W 9 16.09 Light Rain FEW065 SCT085 BKN110 10.6 3.9 13.9 10.6 64% 75.34 1004.3
05 06:53 W 15 16.09 Overcast SCT080 OVC100 10.6 2.8 59% 75.34 1004.0
05 05:53 W 11 16.09 Mostly Cloudy BKN095 BKN120 11.7 2.8 55% 75.23 1002.6
05 04:53 W 15 16.09 Mostly Cloudy BKN085 12.8 4.4 57% 75.23 1002.5
05 03:53 W 19 16.09 A Few Clouds FEW080 13.3 7.8 70% 75.16 1001.7
05 02:53 SW 19 16.09 Fair CLR 13.9 11.1 83% 75.13 1001.1
05 01:53 SW 19 16.09 Fair CLR 13.9 11.1 21.7 13.9 83% 75.08 1000.6 0.13
05 00:53 NW 9 G 33 16.09 Mostly Cloudy BKN090 BKN100 15 11.1 78% 75.06 1000.4
04 23:53 S 19 16.09 Mostly Cloudy BKN100 14.4 12.2 87% 75.03 1000.0
04 22:53 S 19 G 41 16.09 Light Rain SCT080 OVC100 15 12.2 83% 75.03 1000.1 0.08 0.13
04 21:53 SW 20 16.09 A Few Clouds FEW090 17.8 12.8 73% 75.06 1000.2 0.05
04 20:53 SW 44 G 70 16.09 Thunderstorm in Vicinity Light Rain and Windy SCT100 18.9 11.7 63% 74.96 999.0
04 19:53 SW 33 G 50 16.09 Mostly Cloudy and Breezy SCT065 BKN080 BKN100 21.7 10.6 25 21.7 49% 74.96 999.1
04 18:53 W 24 16.09 A Few Clouds FEW075 23.9 8.3 37% 25 74.93 998.8
04 17:53 W 24 G 41 16.09 A Few Clouds FEW090 24.4 7.8 35% 25 74.93 998.7
04 16:53 SW 39 G 54 16.09 Partly Cloudy and Breezy FEW060 SCT090 23.9 9.4 40% 25 75.01 999.7
04 15:53 SW 33 G 48 16.09 Mostly Cloudy and Breezy BKN070 BKN090 22.8 8.9 41% 75.03 1000.2
04 14:53 SW 31 G 50 16.09 Partly Cloudy SCT080 23.3 6.7 34% 75.11 1000.9
04 13:53 SW 35 G 50 16.09 Fair and Breezy CLR 22.8 4.4 22.8 10 30% 75.13 1001.4
04 12:53 W 30 G 44 16.09 Fair CLR 21.7 5.6 35% 75.21 1002.6
04 11:53 SW 24 16.09 Fair CLR 20.6 6.7 41% 75.26 1003.2
04 10:53 SW 22 16.09 Fair CLR 18.3 7.8 51% 75.31 1003.9
04 09:53 SW 17 16.09 Fair CLR 15.6 7.8 60% 75.34 1004.2
04 08:53 SW 20 16.09 Fair CLR 12.8 6.7 67% 75.36 1004.8
04 07:53 SW 20 16.09 Fair CLR 10 6.1 10 7.8 77% 8 75.36 1004.8
04 06:53 S 11 16.09 Fair CLR 7.8 5 83% 6 75.34 1004.8
04 05:53 S 17 16.09 Fair CLR 8.3 5 80% 6 75.34 1004.5
04 04:53 S 13 16.09 Fair CLR 8.3 5 80% 6 75.34 1004.6
04 03:53 S 15 16.09 Fair CLR 8.3 5 80% 6 75.39 1005.1
04 02:53 S 17 16.09 Fair CLR 8.9 5 77% 7 75.44 1005.6
04 01:53 S 15 16.09 Fair CLR 8.9 5 11.1 8.9 77% 7 75.51 1006.6
04 00:53 S 17 16.09 Fair CLR 8.9 5 77% 7 75.54 1007.2
03 23:53 S 19 G 33 16.09 Fair CLR 8.9 4.4 74% 6 75.59 1007.8
03 22:53 S 26 16.09 Fair CLR 9.4 4.4 71% 6 75.59 1008.0
03 21:53 S 20 16.09 Fair CLR 9.4 4.4 71% 7 75.59 1008.1
03 20:53 S 22 16.09 Partly Cloudy SCT100 10.6 3.9 64% 75.62 1008.5
03 19:53 S 26 16.09 Partly Cloudy SCT110 11.1 3.9 17.2 11.1 61% 75.67 1009.0
03 18:53 S 24 G 39 16.09 Mostly Cloudy BKN100 11.1 4.4 64% 75.72 1009.8
03 17:53 SW 24 G 43 16.09 Overcast OVC080 11.1 3.9 61% 75.79 1010.8
03 16:53 SW 37 G 54 16.09 Overcast and Breezy BKN070 OVC080 12.2 3.3 55% 75.79 1010.9
03 15:53 W 43 G 56 16.09 Overcast and Windy OVC065 15 2.2 42% 75.79 1010.6
03 14:53 SW 39 G 63 16.09 Mostly Cloudy and Breezy BKN060 16.7 1.7 37% 75.82 1011.0
Date Time (edt) Wind (kph) Vis. (km) Weather Sky Cond. Air Dwpt Max. Min. Relative Humidity Wind Chill (°C) Heat Index (°C) altimeter (cm) sea level (mb) 1 hr 3 hr 6 hr
6 hour
Temperature (ºC) Pressure Precipitation (cm)